Time;durP1;ratioP1;P1;durP2;ratioP2;P2;SDS_P1;SDS_P2;PMS_P1;PMS_P2;Temp;Humidity;BMP_temperature;BMP_pressure;BME280_temperature;BME280_humidity;BME280_pressure;Samples;Min_cycle;Max_cycle;Signal;HPM_P1;HPM_P2
2022/09/14 00:00:58;;;;;;;12.53;8.08;;;27.40;99.90;;;;;;1903580;74;21222;-84
2022/09/14 00:03:30;;;;;;;14.25;8.58;;;27.40;99.90;;;;;;1902008;74;21318;-84
2022/09/14 00:06:04;;;;;;;13.10;8.35;;;27.40;99.90;;;;;;1930354;72;21221;-85
2022/09/14 00:08:36;;;;;;;9.75;8.30;;;27.40;99.90;;;;;;1928490;73;21076;-86
2022/09/14 00:11:10;;;;;;;13.90;8.20;;;27.40;99.90;;;;;;1928685;73;21127;-85
2022/09/14 00:13:43;;;;;;;11.40;7.95;;;27.40;99.90;;;;;;1935647;73;21641;-84
2022/09/14 00:16:16;;;;;;;13.50;8.30;;;27.50;99.90;;;;;;1939195;73;21066;-85
2022/09/14 00:18:49;;;;;;;11.38;8.53;;;27.50;99.90;;;;;;1930272;73;21135;-85
2022/09/14 00:21:21;;;;;;;12.00;8.13;;;27.50;99.90;;;;;;1931909;73;21057;-84
2022/09/14 00:23:52;;;;;;;12.40;8.18;;;27.60;99.90;;;;;;1928595;73;21185;-84
2022/09/14 00:26:24;;;;;;;10.38;7.42;;;27.60;99.90;;;;;;1854174;76;21153;-85
2022/09/14 00:28:57;;;;;;;15.28;7.72;;;27.60;99.90;;;;;;1915505;73;21126;-85
2022/09/14 00:31:28;;;;;;;9.08;6.10;;;27.60;99.90;;;;;;1880399;74;21122;-84
2022/09/14 00:34:00;;;;;;;8.30;5.90;;;27.60;99.90;;;;;;1914689;73;21075;-84
2022/09/14 00:36:33;;;;;;;8.98;5.67;;;27.60;99.90;;;;;;1927808;73;21626;-84
2022/09/14 00:39:06;;;;;;;9.40;5.30;;;27.60;99.90;;;;;;1927563;73;21194;-85
2022/09/14 00:41:39;;;;;;;7.10;4.67;;;27.70;99.90;;;;;;1928190;73;21864;-86
2022/09/14 00:44:14;;;;;;;8.83;5.00;;;27.70;99.90;;;;;;1932311;73;21146;-84
2022/09/14 00:46:48;;;;;;;8.03;5.40;;;27.70;99.90;;;;;;1924608;73;21094;-85
2022/09/14 00:49:21;;;;;;;7.78;5.05;;;27.70;99.90;;;;;;1884460;75;21162;-85
2022/09/14 00:51:54;;;;;;;8.65;5.05;;;27.70;99.90;;;;;;1915124;73;21119;-85
2022/09/14 00:54:26;;;;;;;9.65;5.40;;;27.70;99.90;;;;;;1923238;73;21083;-84
2022/09/14 00:57:00;;;;;;;8.63;5.28;;;27.80;99.90;;;;;;1895055;74;21147;-84
2022/09/14 00:59:35;;;;;;;9.00;5.12;;;27.90;99.90;;;;;;1893146;74;21206;-84
2022/09/14 01:02:08;;;;;;;6.85;5.00;;;27.90;99.90;;;;;;1891995;74;21661;-84
2022/09/14 01:04:39;;;;;;;9.60;6.33;;;27.90;99.90;;;;;;1900264;74;21118;-86
2022/09/14 01:07:12;;;;;;;7.65;5.67;;;28.00;99.90;;;;;;1919606;73;21245;-74
2022/09/14 01:09:45;;;;;;;8.28;6.35;;;28.00;99.90;;;;;;1937419;73;21105;-75
2022/09/14 01:12:19;;;;;;;9.18;6.35;;;28.10;99.90;;;;;;1925572;73;21163;-73
2022/09/14 01:14:52;;;;;;;11.57;5.90;;;28.10;99.90;;;;;;1924434;73;21165;-74
2022/09/14 01:17:25;;;;;;;10.13;5.08;;;28.20;99.90;;;;;;1886976;74;21543;-75
2022/09/14 01:19:58;;;;;;;7.28;5.10;;;28.30;99.90;;;;;;1910490;73;21202;-75
2022/09/14 01:22:32;;;;;;;7.70;4.78;;;28.30;99.90;;;;;;1909322;74;21672;-75
2022/09/14 01:25:05;;;;;;;6.45;5.10;;;28.30;99.90;;;;;;1878490;75;21127;-73
2022/09/14 01:27:42;;;;;;;7.95;4.95;;;28.40;99.90;;;;;;1888424;75;21188;-73
2022/09/14 01:30:11;;;;;;;8.38;4.78;;;28.40;99.90;;;;;;1887437;75;21726;-73
2022/09/14 01:32:44;;;;;;;5.78;4.65;;;28.40;99.90;;;;;;1878053;75;21135;-74
2022/09/14 01:35:17;;;;;;;8.18;5.20;;;28.50;99.90;;;;;;1888022;74;21454;-73
2022/09/14 01:37:48;;;;;;;6.10;5.00;;;28.50;99.90;;;;;;1900633;74;21151;-74
2022/09/14 01:40:22;;;;;;;5.53;4.53;;;28.60;99.90;;;;;;1927070;73;21080;-73
2022/09/14 01:42:55;;;;;;;9.53;4.78;;;28.60;99.90;;;;;;1938360;73;21116;-72
2022/09/14 01:45:28;;;;;;;16.40;5.65;;;28.60;99.90;;;;;;1936140;73;21721;-72
2022/09/14 01:48:02;;;;;;;6.72;4.40;;;28.70;99.90;;;;;;1933885;73;21193;-73
2022/09/14 01:50:35;;;;;;;6.10;4.80;;;28.70;99.90;;;;;;1928848;73;21095;-74
2022/09/14 01:53:08;;;;;;;7.87;5.10;;;28.70;99.90;;;;;;1927526;73;21177;-73
2022/09/14 01:55:42;;;;;;;5.80;5.12;;;28.80;99.90;;;;;;1929079;73;21112;-73
2022/09/14 01:58:19;;;;;;;6.15;4.78;;;28.80;99.90;;;;;;1932067;73;21162;-75
2022/09/14 02:00:52;;;;;;;7.55;4.12;;;28.90;99.80;;;;;;1926427;73;21152;-74
2022/09/14 02:03:26;;;;;;;8.68;4.80;;;29.00;99.60;;;;;;1926542;73;21090;-73
2022/09/14 02:05:59;;;;;;;6.20;4.20;;;29.00;99.60;;;;;;1933443;73;21599;-74
2022/09/14 02:08:32;;;;;;;8.33;4.60;;;29.00;99.20;;;;;;1890995;74;21670;-73
2022/09/14 02:11:03;;;;;;;4.58;3.90;;;29.10;99.40;;;;;;1938065;73;21137;-73
2022/09/14 02:13:34;;;;;;;4.55;3.90;;;29.20;99.00;;;;;;1938936;73;21224;-73
2022/09/14 02:16:04;;;;;;;6.87;4.08;;;29.30;99.10;;;;;;1945592;73;21139;-72
2022/09/14 02:18:37;;;;;;;6.05;5.15;;;29.30;99.00;;;;;;1940027;73;21523;-73
2022/09/14 02:21:10;;;;;;;6.10;4.35;;;29.40;98.10;;;;;;1948480;73;21173;-73
2022/09/14 02:23:41;;;;;;;6.35;4.60;;;29.40;98.60;;;;;;1944522;73;21180;-73
2022/09/14 02:26:13;;;;;;;5.80;4.47;;;29.50;98.70;;;;;;1943075;73;21593;-73
2022/09/14 02:28:45;;;;;;;7.42;4.70;;;29.60;98.60;;;;;;1952517;73;21657;-73
2022/09/14 02:31:19;;;;;;;6.42;4.67;;;29.70;98.50;;;;;;1942980;73;21145;-72
2022/09/14 02:33:53;;;;;;;6.17;4.30;;;29.80;98.10;;;;;;1952546;73;21655;-73
2022/09/14 02:36:26;;;;;;;7.25;4.47;;;29.90;97.60;;;;;;1942156;73;21639;-73
2022/09/14 02:38:59;;;;;;;6.65;4.65;;;30.00;97.40;;;;;;1948045;73;21132;-72
2022/09/14 02:41:36;;;;;;;8.30;5.00;;;30.10;97.20;;;;;;1940470;73;21804;-72
2022/09/14 02:44:07;;;;;;;8.15;4.90;;;30.10;97.20;;;;;;1939617;73;21715;-73
2022/09/14 02:46:39;;;;;;;6.17;4.78;;;30.10;97.30;;;;;;1946801;73;21107;-72
2022/09/14 02:49:12;;;;;;;6.08;4.22;;;30.10;97.10;;;;;;1938653;73;21154;-73
2022/09/14 02:51:45;;;;;;;5.87;5.17;;;30.10;97.00;;;;;;1942988;73;21148;-73
2022/09/14 02:54:18;;;;;;;5.53;4.75;;;30.10;97.10;;;;;;1942958;73;21194;-73
2022/09/14 02:56:50;;;;;;;5.95;4.17;;;30.00;96.70;;;;;;1945737;73;21137;-73
2022/09/14 02:59:20;;;;;;;7.53;4.28;;;30.00;96.20;;;;;;1947932;73;21182;-73
2022/09/14 03:01:51;;;;;;;5.80;4.47;;;29.90;96.50;;;;;;1926773;73;21119;-73
2022/09/14 03:04:22;;;;;;;6.83;4.12;;;29.90;96.20;;;;;;1932782;73;21184;-72
2022/09/14 03:06:53;;;;;;;5.60;4.03;;;29.90;96.50;;;;;;1929996;73;21055;-73
2022/09/14 03:09:24;;;;;;;4.92;4.17;;;29.90;96.60;;;;;;1951418;73;21191;-74
2022/09/14 03:11:54;;;;;;;7.72;4.72;;;29.90;96.90;;;;;;1941645;73;21156;-74
2022/09/14 03:14:25;;;;;;;5.65;4.67;;;30.00;96.90;;;;;;1949055;73;21237;-73
2022/09/14 03:16:57;;;;;;;6.75;4.47;;;30.20;96.90;;;;;;1948857;73;21617;-72
2022/09/14 03:19:27;;;;;;;7.03;4.47;;;30.40;96.60;;;;;;1928050;74;21166;-73
2022/09/14 03:21:58;;;;;;;5.00;4.35;;;30.50;96.10;;;;;;1942054;73;21272;-73
2022/09/14 03:24:30;;;;;;;5.45;4.67;;;30.50;96.20;;;;;;1942792;73;21137;-73
2022/09/14 03:27:00;;;;;;;7.05;5.72;;;30.50;96.30;;;;;;1953047;73;21114;-72
2022/09/14 03:29:31;;;;;;;8.75;5.30;;;30.40;96.70;;;;;;1942784;73;21638;-75
2022/09/14 03:32:03;;;;;;;10.25;6.15;;;30.30;96.80;;;;;;1937426;73;21093;-74
2022/09/14 03:34:33;;;;;;;12.15;6.65;;;30.30;97.10;;;;;;1942743;73;21673;-73
2022/09/14 03:37:05;;;;;;;8.33;6.00;;;30.30;97.20;;;;;;1932137;73;21090;-73
2022/09/14 03:39:38;;;;;;;7.58;6.20;;;30.20;97.30;;;;;;1939939;73;21833;-73
2022/09/14 03:42:09;;;;;;;7.95;5.58;;;30.20;97.50;;;;;;1933631;73;21117;-73
2022/09/14 03:44:40;;;;;;;11.22;6.03;;;30.30;97.50;;;;;;1932171;73;21698;-74
2022/09/14 03:47:11;;;;;;;7.72;5.85;;;30.40;97.30;;;;;;1934964;73;21113;-74
2022/09/14 03:49:42;;;;;;;6.90;5.35;;;30.60;96.80;;;;;;1936293;73;22428;-74
2022/09/14 03:52:12;;;;;;;8.15;5.65;;;30.90;96.50;;;;;;1918675;73;21129;-74
2022/09/14 03:54:44;;;;;;;8.08;5.17;;;31.20;95.60;;;;;;1936079;73;21551;-74
2022/09/14 03:57:16;;;;;;;7.22;5.72;;;31.40;95.20;;;;;;1929896;73;21125;-74
2022/09/14 03:59:47;;;;;;;9.28;5.67;;;31.60;95.20;;;;;;1935162;74;21721;-74
2022/09/14 04:02:18;;;;;;;10.20;6.22;;;31.60;94.60;;;;;;1932694;73;21066;-74
2022/09/14 04:04:49;;;;;;;9.33;5.60;;;31.70;95.30;;;;;;1937664;73;21072;-75
2022/09/14 04:07:20;;;;;;;9.05;6.05;;;31.60;94.50;;;;;;1932199;73;21493;-72
2022/09/14 04:09:50;;;;;;;5.92;5.20;;;31.50;94.60;;;;;;1923964;73;21579;-72
2022/09/14 04:12:22;;;;;;;7.62;5.47;;;31.40;94.40;;;;;;1932443;73;21183;-72
2022/09/14 04:14:52;;;;;;;7.12;5.42;;;31.40;94.40;;;;;;1932731;73;21487;-72
2022/09/14 04:17:24;;;;;;;11.10;6.00;;;31.50;94.30;;;;;;1932717;72;21619;-72
2022/09/14 04:19:54;;;;;;;6.95;6.22;;;31.50;94.50;;;;;;1930672;73;21121;-72
2022/09/14 04:22:25;;;;;;;7.30;5.55;;;31.50;94.60;;;;;;1933181;73;21180;-72
2022/09/14 04:24:56;;;;;;;9.58;5.28;;;31.40;94.80;;;;;;1937318;73;21119;-72
2022/09/14 04:27:27;;;;;;;10.23;7.33;;;31.20;95.10;;;;;;1923969;73;21528;-72
2022/09/14 04:29:57;;;;;;;9.80;7.15;;;31.00;95.60;;;;;;1927993;74;21108;-72
2022/09/14 04:32:28;;;;;;;11.70;7.22;;;30.90;95.90;;;;;;1925597;73;21109;-72
2022/09/14 04:35:01;;;;;;;8.35;6.22;;;30.70;96.20;;;;;;1936595;73;21122;-75
2022/09/14 04:37:33;;;;;;;8.10;5.67;;;30.60;97.10;;;;;;1930272;73;21080;-72
2022/09/14 04:40:04;;;;;;;7.53;5.92;;;30.50;96.80;;;;;;1928699;73;21757;-74
2022/09/14 04:42:35;;;;;;;8.95;5.87;;;30.40;97.00;;;;;;1934988;73;21180;-73
2022/09/14 04:45:08;;;;;;;8.93;6.40;;;30.20;97.80;;;;;;1929675;73;21168;-73
2022/09/14 04:47:39;;;;;;;12.05;6.90;;;30.10;98.40;;;;;;1926515;73;21165;-73
2022/09/14 04:50:10;;;;;;;11.28;8.00;;;30.00;98.70;;;;;;1918155;74;21570;-73
2022/09/14 04:52:41;;;;;;;12.75;8.08;;;30.00;99.00;;;;;;1928030;73;21142;-73
2022/09/14 04:55:12;;;;;;;14.43;7.72;;;29.80;98.60;;;;;;1921136;73;21707;-73
2022/09/14 04:57:43;;;;;;;8.73;6.03;;;29.60;99.20;;;;;;1922386;73;21571;-74
2022/09/14 05:00:14;;;;;;;9.15;5.55;;;29.50;99.30;;;;;;1921937;73;22345;-74
2022/09/14 05:02:45;;;;;;;12.53;7.00;;;29.40;99.40;;;;;;1891533;75;21803;-73
2022/09/14 05:05:16;;;;;;;12.63;6.47;;;29.30;99.40;;;;;;1888422;75;21228;-73
2022/09/14 05:07:47;;;;;;;14.53;6.45;;;29.20;99.10;;;;;;1938228;73;21062;-73
2022/09/14 05:10:18;;;;;;;12.43;6.12;;;29.00;99.20;;;;;;1937987;73;21150;-72
2022/09/14 05:12:49;;;;;;;12.85;6.58;;;28.80;99.70;;;;;;1933187;73;21078;-72
2022/09/14 05:15:20;;;;;;;8.75;5.72;;;28.50;99.90;;;;;;1941452;73;21171;-72
2022/09/14 05:17:51;;;;;;;8.83;4.87;;;28.20;99.90;;;;;;1892390;74;21618;-73
2022/09/14 05:20:22;;;;;;;10.00;5.35;;;27.90;99.90;;;;;;1883973;74;21160;-73
2022/09/14 05:22:53;;;;;;;10.45;4.22;;;27.70;99.90;;;;;;1928067;73;21106;-74
2022/09/14 05:25:25;;;;;;;8.05;4.30;;;27.40;99.90;;;;;;1931712;73;21176;-71
2022/09/14 05:27:57;;;;;;;7.75;4.65;;;27.10;99.90;;;;;;1942690;73;21151;-72
2022/09/14 05:30:28;;;;;;;8.73;5.10;;;27.00;99.90;;;;;;1885906;75;21138;-72
2022/09/14 05:32:58;;;;;;;4.67;2.27;;;26.80;99.90;;;;;;1888198;74;21438;-72
2022/09/14 05:35:29;;;;;;;6.00;2.92;;;26.70;99.90;;;;;;1935033;73;21678;-72
2022/09/14 05:38:00;;;;;;;7.35;3.52;;;26.60;99.90;;;;;;1930321;73;21064;-72
2022/09/14 05:40:31;;;;;;;7.12;4.08;;;26.60;99.90;;;;;;1893949;74;21167;-72
2022/09/14 05:43:02;;;;;;;8.78;4.60;;;26.60;99.90;;;;;;1879705;76;21136;-72
2022/09/14 05:45:35;;;;;;;7.62;4.15;;;26.60;99.90;;;;;;1881752;76;21166;-72
2022/09/14 05:48:06;;;;;;;8.95;4.90;;;26.60;99.90;;;;;;1910740;74;21079;-72
2022/09/14 05:50:37;;;;;;;6.80;3.45;;;26.60;99.90;;;;;;1896535;75;21547;-72
2022/09/14 05:53:08;;;;;;;9.53;4.08;;;26.60;99.90;;;;;;1862295;76;21182;-72
2022/09/14 05:55:38;;;;;;;10.05;4.97;;;26.70;99.90;;;;;;1909000;74;21209;-74
2022/09/14 05:58:09;;;;;;;6.85;3.17;;;26.80;99.90;;;;;;1899973;75;21071;-71
2022/09/14 06:00:40;;;;;;;7.45;3.40;;;26.90;99.90;;;;;;1899143;74;21154;-72
2022/09/14 06:03:11;;;;;;;7.15;3.35;;;26.90;99.90;;;;;;1863399;76;21216;-72
2022/09/14 06:05:42;;;;;;;9.98;6.97;;;27.00;99.90;;;;;;1884782;75;21612;-72
2022/09/14 06:08:13;;;;;;;15.45;9.75;;;27.10;99.90;;;;;;1859971;76;21642;-72
2022/09/14 06:10:44;;;;;;;8.58;5.37;;;27.20;99.90;;;;;;1887039;75;21126;-72
2022/09/14 06:13:15;;;;;;;7.17;4.95;;;27.30;99.90;;;;;;1875991;76;21186;-72
2022/09/14 06:16:06;;;;;;;9.50;4.90;;;27.40;99.90;;;;;;1874586;76;21204;-72
2022/09/14 06:18:38;;;;;;;10.38;5.78;;;27.40;99.90;;;;;;1875505;76;21756;-72
2022/09/14 06:21:14;;;;;;;7.92;4.92;;;27.50;99.90;;;;;;1852024;76;21126;-73
2022/09/14 06:23:45;;;;;;;8.85;4.75;;;27.60;99.90;;;;;;1878710;76;21496;-72
2022/09/14 06:26:16;;;;;;;8.90;4.85;;;27.60;99.90;;;;;;1877260;75;21179;-72
2022/09/14 06:28:47;;;;;;;9.48;5.20;;;27.60;99.90;;;;;;1880675;76;21642;-72
2022/09/14 06:31:21;;;;;;;8.88;5.10;;;27.60;99.90;;;;;;1882216;76;21170;-72
2022/09/14 06:33:52;;;;;;;6.95;4.60;;;27.70;99.90;;;;;;1879912;76;21092;-71
2022/09/14 06:36:25;;;;;;;6.40;4.10;;;27.70;99.90;;;;;;1907044;74;21141;-73
2022/09/14 06:38:56;;;;;;;8.08;5.12;;;27.70;99.90;;;;;;1865414;76;21177;-73
2022/09/14 06:41:31;;;;;;;6.70;4.62;;;27.70;99.90;;;;;;1899380;73;21216;-72
2022/09/14 06:44:01;;;;;;;6.60;4.03;;;27.70;99.90;;;;;;1926015;74;21598;-73
2022/09/14 06:46:34;;;;;;;6.33;4.85;;;27.80;99.90;;;;;;1939492;73;21191;-73
2022/09/14 06:49:07;;;;;;;9.58;4.80;;;27.80;99.90;;;;;;1925031;73;22294;-73
2022/09/14 06:51:41;;;;;;;8.93;4.80;;;27.90;99.90;;;;;;1914118;73;21111;-73
2022/09/14 06:54:14;;;;;;;5.97;4.70;;;28.00;99.90;;;;;;1873165;74;21180;-71
2022/09/14 06:56:46;;;;;;;6.03;4.20;;;28.00;99.90;;;;;;1930092;73;21142;-71
2022/09/14 06:59:36;;;;;;;7.62;4.50;;;28.10;99.90;;;;;;1943273;73;21591;-72
2022/09/14 07:02:09;;;;;;;6.53;4.12;;;28.20;99.90;;;;;;1829747;77;21165;-72
2022/09/14 07:04:40;;;;;;;6.40;4.58;;;28.30;99.90;;;;;;1861641;75;21146;-72
2022/09/14 07:07:13;;;;;;;9.45;4.70;;;28.40;99.90;;;;;;1863659;75;21200;-72
2022/09/14 07:09:46;;;;;;;8.95;5.17;;;28.40;99.90;;;;;;1845535;76;21127;-73
2022/09/14 07:12:18;;;;;;;8.00;5.42;;;28.40;99.90;;;;;;1857840;75;21972;-73
2022/09/14 07:14:49;;;;;;;7.35;4.30;;;28.50;99.90;;;;;;1850727;75;21191;-73
2022/09/14 07:17:20;;;;;;;6.05;3.15;;;28.50;99.90;;;;;;1851731;76;21710;-73
2022/09/14 07:19:51;;;;;;;6.85;4.22;;;28.50;99.80;;;;;;1856355;76;21155;-73
2022/09/14 07:22:22;;;;;;;5.10;3.20;;;28.50;99.60;;;;;;1849755;75;21107;-73
2022/09/14 07:24:53;;;;;;;4.03;2.55;;;28.40;99.80;;;;;;1855256;76;21082;-73
2022/09/14 07:27:24;;;;;;;4.83;2.37;;;28.30;98.70;;;;;;1856741;76;21457;-73
2022/09/14 07:29:55;;;;;;;5.83;2.50;;;28.20;98.60;;;;;;1853219;76;21178;-73
2022/09/14 07:32:25;;;;;;;3.33;2.35;;;28.10;98.70;;;;;;1824939;77;21205;-73
2022/09/14 07:34:57;;;;;;;5.37;2.60;;;28.00;99.20;;;;;;1858509;75;21256;-74
2022/09/14 07:37:29;;;;;;;6.40;2.55;;;28.00;99.60;;;;;;1851180;76;21538;-74
2022/09/14 07:40:01;;;;;;;7.72;2.92;;;27.90;99.90;;;;;;1861446;77;21740;-73
2022/09/14 07:42:32;;;;;;;4.22;2.47;;;27.90;99.90;;;;;;1858175;75;21232;-73
2022/09/14 07:45:03;;;;;;;5.70;2.75;;;27.90;99.90;;;;;;1886068;75;21215;-73
2022/09/14 07:47:34;;;;;;;5.08;2.47;;;27.80;99.90;;;;;;1895453;74;21086;-74
2022/09/14 07:50:05;;;;;;;5.00;2.70;;;27.80;99.90;;;;;;1900865;74;21157;-73
2022/09/14 07:52:37;;;;;;;7.90;3.10;;;27.80;99.90;;;;;;1890928;75;21146;-73
2022/09/14 07:55:11;;;;;;;4.58;2.50;;;27.80;99.90;;;;;;1858736;76;21244;-74
2022/09/14 07:57:41;;;;;;;6.92;3.10;;;27.80;99.90;;;;;;1891832;74;21630;-74
2022/09/14 08:00:15;;;;;;;6.42;2.67;;;27.90;99.90;;;;;;1889691;74;21144;-74
2022/09/14 08:02:47;;;;;;;5.42;2.50;;;27.90;99.40;;;;;;1851081;77;21067;-74
2022/09/14 08:05:19;;;;;;;8.75;2.90;;;27.90;99.60;;;;;;1864757;77;22340;-74
2022/09/14 08:07:52;;;;;;;10.32;3.47;;;27.90;99.70;;;;;;1847568;76;21190;-73
2022/09/14 08:10:24;;;;;;;5.40;3.50;;;27.90;99.90;;;;;;1841418;76;21235;-74
2022/09/14 08:12:56;;;;;;;6.70;3.67;;;27.90;99.90;;;;;;1889728;74;21188;-74
2022/09/14 08:15:27;;;;;;;4.55;3.12;;;28.00;99.90;;;;;;1840502;76;21871;-73
2022/09/14 08:18:01;;;;;;;7.40;3.27;;;28.00;99.70;;;;;;1821707;77;22166;-74
2022/09/14 08:20:32;;;;;;;6.12;3.52;;;28.00;99.60;;;;;;1878041;75;21687;-73
2022/09/14 08:23:02;;;;;;;5.08;3.20;;;28.00;99.80;;;;;;1847949;75;21480;-72
2022/09/14 08:25:33;;;;;;;7.62;3.85;;;28.00;99.80;;;;;;1838745;76;21094;-74
2022/09/14 08:28:04;;;;;;;6.47;3.30;;;28.00;99.90;;;;;;1869942;75;21104;-74
2022/09/14 08:30:35;;;;;;;5.80;3.20;;;28.00;99.90;;;;;;1864357;75;21624;-74
2022/09/14 08:33:07;;;;;;;6.72;3.80;;;28.00;99.90;;;;;;1859084;77;21133;-74
2022/09/14 08:35:40;;;;;;;7.20;3.50;;;28.10;99.90;;;;;;1905932;74;21122;-74
2022/09/14 08:38:12;;;;;;;9.60;4.25;;;28.10;99.90;;;;;;1859265;75;21161;-74
2022/09/14 08:40:46;;;;;;;5.33;3.90;;;28.10;99.90;;;;;;1845749;77;21583;-73
2022/09/14 08:43:17;;;;;;;6.70;4.10;;;28.10;99.90;;;;;;1901828;74;22219;-73
2022/09/14 08:45:54;;;;;;;6.55;4.10;;;28.20;99.90;;;;;;1899271;74;21198;-73
2022/09/14 08:48:27;;;;;;;9.18;4.40;;;28.20;99.90;;;;;;1851552;75;21126;-76
2022/09/14 08:50:59;;;;;;;6.90;4.03;;;28.30;99.90;;;;;;1864027;75;21088;-74
2022/09/14 08:53:30;;;;;;;7.33;4.08;;;28.30;99.90;;;;;;1850755;75;21134;-73
2022/09/14 08:56:03;;;;;;;7.42;4.37;;;28.40;99.90;;;;;;1825708;77;21189;-74
2022/09/14 08:58:36;;;;;;;6.35;3.75;;;28.40;99.90;;;;;;1845485;75;21170;-73
2022/09/14 09:01:11;;;;;;;5.55;4.20;;;28.40;99.90;;;;;;1852408;75;21122;-73
2022/09/14 09:03:44;;;;;;;5.70;4.03;;;28.40;99.90;;;;;;1884300;74;21228;-73
2022/09/14 09:06:18;;;;;;;7.47;4.35;;;28.50;99.90;;;;;;1823695;77;21099;-73
2022/09/14 09:09:07;;;;;;;7.25;4.78;;;28.50;99.90;;;;;;1851667;77;21112;-73
2022/09/14 09:11:41;;;;;;;8.43;4.10;;;28.50;99.90;;;;;;1808659;77;21237;-73
2022/09/14 09:14:14;;;;;;;8.10;4.60;;;28.50;99.90;;;;;;1803003;78;21180;-73
2022/09/14 09:16:50;;;;;;;8.15;4.30;;;28.50;99.90;;;;;;1798336;77;21174;-73
2022/09/14 09:19:23;;;;;;;6.58;4.28;;;28.50;99.90;;;;;;1803141;78;21159;-72
2022/09/14 09:21:55;;;;;;;7.25;4.20;;;28.50;99.90;;;;;;1802157;79;21134;-73
2022/09/14 09:24:28;;;;;;;7.67;5.85;;;28.50;99.90;;;;;;1816871;77;21752;-73
2022/09/14 09:27:05;;;;;;;7.53;3.90;;;28.50;99.90;;;;;;1806439;77;21175;-73
2022/09/14 09:29:36;;;;;;;7.85;4.65;;;28.50;99.90;;;;;;1823141;75;21623;-73
2022/09/14 09:32:10;;;;;;;6.30;4.15;;;28.50;99.90;;;;;;1804837;77;21604;-74
2022/09/14 09:34:41;;;;;;;6.70;4.67;;;28.60;99.90;;;;;;1809636;79;21104;-74
2022/09/14 09:37:14;;;;;;;8.60;4.72;;;28.50;99.90;;;;;;1852954;77;21199;-73
2022/09/14 09:39:45;;;;;;;8.00;4.40;;;28.60;99.90;;;;;;1841391;76;21154;-72
2022/09/14 09:42:21;;;;;;;7.42;4.58;;;28.60;99.90;;;;;;1850781;76;21256;-72
2022/09/14 09:44:55;;;;;;;7.58;4.33;;;28.50;99.90;;;;;;1858979;76;21091;-73
2022/09/14 09:47:28;;;;;;;6.62;5.08;;;28.60;99.90;;;;;;1859912;76;21157;-72
2022/09/14 09:50:01;;;;;;;7.15;4.92;;;28.50;99.90;;;;;;1859526;76;21206;-72
2022/09/14 09:52:34;;;;;;;6.62;5.00;;;28.50;99.90;;;;;;1830666;76;21687;-72
2022/09/14 09:55:07;;;;;;;7.78;4.90;;;28.50;99.90;;;;;;1822367;78;21102;-72
2022/09/14 09:57:38;;;;;;;9.18;5.22;;;28.50;99.90;;;;;;1861272;75;21634;-74
2022/09/14 10:00:12;;;;;;;11.78;5.20;;;28.50;99.90;;;;;;1850285;77;21213;-73
2022/09/14 10:02:43;;;;;;;8.65;5.75;;;28.50;99.90;;;;;;1847216;76;21130;-73
2022/09/14 10:05:16;;;;;;;10.00;5.35;;;28.50;99.90;;;;;;1839268;77;21270;-73
2022/09/14 10:07:49;;;;;;;11.65;5.47;;;28.50;99.90;;;;;;1833613;77;21555;-73
2022/09/14 10:10:23;;;;;;;8.43;5.78;;;28.50;99.90;;;;;;1821236;76;21236;-73
2022/09/14 10:12:56;;;;;;;7.97;5.17;;;28.50;99.90;;;;;;1827789;75;21119;-73
2022/09/14 10:15:30;;;;;;;10.88;5.83;;;28.50;99.90;;;;;;1840290;76;21124;-72
2022/09/14 10:18:03;;;;;;;14.73;6.10;;;28.50;99.90;;;;;;1823990;76;21167;-72
2022/09/14 10:20:35;;;;;;;9.70;5.62;;;28.50;99.90;;;;;;1813595;76;21163;-69
2022/09/14 10:23:09;;;;;;;9.78;5.40;;;28.50;99.90;;;;;;1835034;76;21224;-72
2022/09/14 10:25:40;;;;;;;10.32;6.15;;;28.50;99.90;;;;;;1837952;76;21634;-72
2022/09/14 10:28:13;;;;;;;9.65;6.22;;;28.50;99.90;;;;;;1835820;76;21183;-72
2022/09/14 10:30:48;;;;;;;8.88;5.72;;;28.50;99.90;;;;;;1826605;76;21169;-72
2022/09/14 10:33:19;;;;;;;11.45;6.17;;;28.50;99.90;;;;;;1849498;76;21127;-72
2022/09/14 10:35:52;;;;;;;7.90;5.65;;;28.50;99.90;;;;;;1838605;76;21170;-71
2022/09/14 10:38:30;;;;;;;12.43;6.53;;;28.50;99.90;;;;;;1840994;76;21127;-72
2022/09/14 10:40:59;;;;;;;7.97;5.97;;;28.40;99.90;;;;;;1834767;77;21167;-72
2022/09/14 10:43:33;;;;;;;12.53;6.47;;;28.40;99.90;;;;;;1852931;76;21210;-72
2022/09/14 10:46:08;;;;;;;12.15;6.08;;;28.40;99.90;;;;;;1783431;79;21166;-72
2022/09/14 10:48:42;;;;;;;8.95;6.45;;;28.40;99.90;;;;;;1832339;76;21760;-72
2022/09/14 10:51:15;;;;;;;9.33;5.97;;;28.40;99.90;;;;;;1834678;78;21276;-72
2022/09/14 10:53:47;;;;;;;11.22;6.65;;;28.40;99.90;;;;;;1816832;77;21627;-72
2022/09/14 10:56:20;;;;;;;10.43;7.37;;;28.40;99.90;;;;;;1822799;78;21244;-72
2022/09/14 10:58:54;;;;;;;12.65;6.72;;;28.40;99.90;;;;;;1850820;77;21155;-71
2022/09/14 11:01:26;;;;;;;14.28;7.95;;;28.30;99.90;;;;;;1841335;77;21633;-71
2022/09/14 11:03:59;;;;;;;13.93;9.98;;;28.30;99.90;;;;;;1842942;76;21178;-72
2022/09/14 11:06:32;;;;;;;12.78;8.85;;;28.30;99.90;;;;;;1836664;77;21211;-72
2022/09/14 11:09:06;;;;;;;15.23;7.33;;;28.30;99.90;;;;;;1841558;78;21677;-72
2022/09/14 11:11:39;;;;;;;15.35;8.08;;;28.30;99.90;;;;;;1844320;77;21193;-72
2022/09/14 11:14:13;;;;;;;10.20;6.58;;;28.30;99.90;;;;;;1845515;75;21584;-71
2022/09/14 11:16:49;;;;;;;11.95;6.72;;;28.30;99.90;;;;;;1862311;76;21256;-71
2022/09/14 11:19:19;;;;;;;13.05;7.17;;;28.30;99.90;;;;;;1841033;76;21111;-71
2022/09/14 11:21:52;;;;;;;10.75;7.20;;;28.20;99.90;;;;;;1830211;76;21159;-71
2022/09/14 11:24:26;;;;;;;13.22;7.22;;;28.20;99.90;;;;;;1833802;76;21143;-71
2022/09/14 11:26:59;;;;;;;11.35;7.33;;;28.20;99.90;;;;;;1837109;77;21201;-71
2022/09/14 11:29:32;;;;;;;15.23;8.10;;;28.20;99.90;;;;;;1820117;77;21634;-71
2022/09/14 11:32:07;;;;;;;16.02;8.10;;;28.20;99.90;;;;;;1837367;77;21658;-71
2022/09/14 11:34:41;;;;;;;17.92;9.45;;;28.20;99.90;;;;;;1851437;76;21189;-71
2022/09/14 11:37:15;;;;;;;16.27;8.95;;;28.20;99.90;;;;;;1842929;77;21135;-71
2022/09/14 11:39:52;;;;;;;11.18;7.95;;;28.20;99.90;;;;;;1834980;76;22000;-71
2022/09/14 11:42:25;;;;;;;11.15;7.50;;;28.20;99.90;;;;;;1837733;76;21152;-71
2022/09/14 11:44:59;;;;;;;11.73;7.10;;;28.20;99.90;;;;;;1831709;76;21195;-71
2022/09/14 11:47:32;;;;;;;11.93;7.22;;;28.20;99.90;;;;;;1838145;77;21151;-71
2022/09/14 11:50:05;;;;;;;10.98;7.00;;;28.20;99.90;;;;;;1841740;76;21253;-71
2022/09/14 11:52:37;;;;;;;17.12;7.75;;;28.10;99.90;;;;;;1836207;77;21127;-70
2022/09/14 11:55:10;;;;;;;14.93;8.23;;;28.10;99.90;;;;;;1836935;76;21140;-72
2022/09/14 11:57:44;;;;;;;15.65;8.50;;;28.00;99.90;;;;;;1829830;77;21195;-71
2022/09/14 12:00:17;;;;;;;14.23;8.05;;;28.00;99.90;;;;;;1831580;77;21791;-71
2022/09/14 12:02:50;;;;;;;11.55;7.50;;;28.00;99.90;;;;;;1840031;76;21112;-71
2022/09/14 12:05:22;;;;;;;17.87;8.13;;;28.00;99.90;;;;;;1838886;76;21230;-70
2022/09/14 12:07:54;;;;;;;17.23;8.45;;;28.00;99.90;;;;;;1836007;76;21088;-81
2022/09/14 12:10:29;;;;;;;14.47;9.23;;;28.00;99.90;;;;;;1832534;77;21658;-81
2022/09/14 12:13:02;;;;;;;16.42;8.75;;;28.10;99.90;;;;;;1827566;77;21166;-82
2022/09/14 12:15:34;;;;;;;14.15;8.95;;;28.10;99.90;;;;;;1830258;76;21159;-83
2022/09/14 12:18:06;;;;;;;18.92;9.60;;;28.00;99.90;;;;;;1862582;75;21178;-82
2022/09/14 12:20:39;;;;;;;19.10;8.93;;;28.10;99.90;;;;;;1822320;77;21112;-83
2022/09/14 12:23:10;;;;;;;14.25;8.43;;;28.00;99.90;;;;;;1783055;79;21620;-82
2022/09/14 12:25:43;;;;;;;16.87;8.20;;;28.00;99.90;;;;;;1819534;77;21185;-83
2022/09/14 12:28:17;;;;;;;16.17;8.93;;;28.10;99.90;;;;;;1858364;76;21240;-83
2022/09/14 12:30:47;;;;;;;14.07;7.90;;;28.10;99.90;;;;;;1861741;75;21170;-82
2022/09/14 12:33:21;;;;;;;19.85;9.18;;;28.10;99.90;;;;;;1870185;75;21247;-82
2022/09/14 12:35:52;;;;;;;18.90;9.38;;;28.10;99.90;;;;;;1846543;76;21157;-82
2022/09/14 12:38:25;;;;;;;14.73;9.25;;;28.10;99.90;;;;;;1848511;76;21177;-82
2022/09/14 12:40:58;;;;;;;16.48;9.78;;;28.10;99.90;;;;;;1849428;76;21171;-82
2022/09/14 12:43:31;;;;;;;17.65;9.95;;;28.20;99.90;;;;;;1844838;76;21788;-82
2022/09/14 12:46:08;;;;;;;15.32;10.15;;;28.10;99.90;;;;;;1849178;76;21198;-82
2022/09/14 12:48:41;;;;;;;15.98;9.90;;;28.10;99.90;;;;;;1843578;76;22200;-81
2022/09/14 12:51:14;;;;;;;22.52;10.53;;;28.10;99.90;;;;;;1840739;76;21155;-82
2022/09/14 12:53:46;;;;;;;20.75;11.75;;;28.10;99.90;;;;;;1841025;77;21150;-83
2022/09/14 12:56:22;;;;;;;21.37;10.08;;;28.10;99.90;;;;;;1818405;77;21156;-82
2022/09/14 12:58:58;;;;;;;18.00;10.63;;;28.10;99.90;;;;;;1829135;76;21704;-83
2022/09/14 13:01:34;;;;;;;17.20;11.53;;;28.10;99.90;;;;;;1853972;76;21732;-83
2022/09/14 13:04:06;;;;;;;19.65;11.83;;;28.10;99.90;;;;;;1843435;76;21197;-82
2022/09/14 13:06:42;;;;;;;22.58;11.45;;;28.10;99.90;;;;;;1805978;78;21224;-81
2022/09/14 13:09:15;;;;;;;20.43;12.07;;;28.10;99.90;;;;;;1846791;76;21198;-82